This is the latest recevied weather packets stored in our database for station/object EFTP. If no packets are shown the sender has not sent any weather packets the latest 10 day(s).
| Time | Temp. | Humidity | Pressure | Rain* | Wind** | Luminosity | Snow |
|---|---|---|---|---|---|---|---|
| 1777290400 | 5.56° C | 39% | 1015.5 hPa | - | - | - | - |
| 1777289201 | 5.56° C | 42% | 1015.3 hPa | - | - | - | - |
| 1777288000 | 6.67° C | 36% | 1015.1 hPa | - | - | - | - |
| 1777286800 | 6.11° C | 40% | 1015.4 hPa | - | - | - | - |
| 1777285600 | 6.11° C | 37% | 1015.5 hPa | - | - | - | - |
| 1777284400 | 5° C | 42% | 1015.7 hPa | - | - | - | - |
| 1777283200 | 5.56° C | 41% | 1015.5 hPa | - | - | - | - |
| 1777281999 | 5° C | 47% | 1015.5 hPa | - | - | - | - |
| 1777280800 | 5.56° C | 41% | 1015.4 hPa | - | - | - | - |
| 1777279599 | 5.56° C | 44% | 1015.5 hPa | - | - | - | - |
| 1777278400 | 5.56° C | 44% | 1015.4 hPa | - | - | - | - |
| 1777277199 | 5.56° C | 44% | 1015.3 hPa | - | - | - | - |
| 1777275999 | 6.11° C | 40% | 1015.3 hPa | - | - | - | - |
| 1777274799 | 5.56° C | 39% | 1015.2 hPa | - | - | - | - |
| 1777273599 | 5° C | 43% | 1015.2 hPa | - | - | - | - |
| 1777272399 | 4.44° C | 47% | 1015.1 hPa | - | - | - | - |
| 1777271199 | 3.89° C | 53% | 1015.1 hPa | - | - | - | - |
| 1777269999 | 3.33° C | 58% | 1015.1 hPa | - | - | - | - |
| 1777268799 | 2.78° C | 63% | 1015.3 hPa | - | - | - | - |
| 1777267599 | 2.78° C | 68% | 1015.2 hPa | - | - | - | - |
| 1777266399 | 1.67° C | 70% | 1015.3 hPa | - | - | - | - |
| 1777265198 | 1.67° C | 73% | 1015.1 hPa | - | - | - | - |
| 1777263998 | 0.56° C | 74% | 1015.1 hPa | - | - | - | - |
| 1777262798 | 0° C | 76% | 1014.9 hPa | - | - | - | - |
| 1777261598 | -0.56° C | 78% | 1014.8 hPa | - | - | - | - |
* Rain since midnight (hover to see other rain measurements)
** Current wind speed in m/s (hover to see current wind gust speed)